Time;durP1;ratioP1;P1;durP2;ratioP2;P2;SDS_P1;SDS_P2;PMS_P1;PMS_P2;Temp;Humidity;BMP_temperature;BMP_pressure;BME280_temperature;BME280_humidity;BME280_pressure;Samples;Min_cycle;Max_cycle;Signal;HPM_P1;HPM_P2
2021/04/03 00:01:07;;;;;;;5.10;3.42;;;6.00;99.90;;;;;;5033213;28;20387;-74
2021/04/03 00:03:33;;;;;;;4.30;3.30;;;6.20;99.90;;;;;;5032388;28;20402;-74
2021/04/03 00:05:59;;;;;;;5.38;3.47;;;5.80;99.90;;;;;;5032846;28;20423;-73
2021/04/03 00:08:25;;;;;;;4.23;3.40;;;6.30;99.90;;;;;;5032350;28;20537;-73
2021/04/03 00:10:57;;;;;;;3.45;3.15;;;5.80;99.90;;;;;;5032938;28;20383;-74
2021/04/03 00:13:27;;;;;;;5.07;3.90;;;5.60;99.90;;;;;;5032070;28;20452;-72
2021/04/03 00:15:52;;;;;;;4.30;3.50;;;5.50;99.90;;;;;;5032530;28;20386;-72
2021/04/03 00:18:18;;;;;;;5.95;3.80;;;5.70;99.90;;;;;;5030770;28;20883;-72
2021/04/03 00:20:48;;;;;;;4.25;3.70;;;;;;;;;;5032364;28;20379;-72
2021/04/03 00:23:15;;;;;;;4.05;3.50;;;;;;;;;;5032004;28;20403;-73
2021/04/03 00:25:41;;;;;;;4.70;4.20;;;5.40;99.90;;;;;;5032454;28;20445;-72
2021/04/03 00:28:07;;;;;;;5.43;3.85;;;;;;;;;;5032438;28;20383;-72
2021/04/03 00:30:33;;;;;;;7.20;4.60;;;;;;;;;;5031985;28;20367;-71
2021/04/03 00:33:02;;;;;;;6.97;5.57;;;6.10;99.90;;;;;;5032381;28;20364;-72
2021/04/03 00:35:33;;;;;;;9.27;6.50;;;6.30;99.90;;;;;;5031398;28;20477;-72
2021/04/03 00:38:00;;;;;;;10.77;7.25;;;6.60;99.90;;;;;;5032297;28;20379;-71
2021/04/03 00:40:26;;;;;;;10.00;7.10;;;;;;;;;;5031642;28;20441;-72
2021/04/03 00:42:51;;;;;;;10.10;7.00;;;6.60;99.90;;;;;;5032089;28;20380;-72
2021/04/03 00:45:18;;;;;;;10.20;6.43;;;6.20;99.90;;;;;;5031386;28;20379;-73
2021/04/03 00:47:44;;;;;;;11.17;7.97;;;6.10;99.90;;;;;;5031794;28;20468;-72
2021/04/03 00:50:12;;;;;;;11.15;7.82;;;5.80;99.90;;;;;;5031878;28;20390;-72
2021/04/03 00:52:38;;;;;;;9.80;6.63;;;;;;;;;;5030147;28;20687;-71
2021/04/03 00:55:07;;;;;;;8.57;6.57;;;6.00;99.90;;;;;;5032018;28;20383;-71
2021/04/03 00:57:33;;;;;;;12.60;7.60;;;6.10;99.90;;;;;;5030929;28;20423;-72
2021/04/03 01:00:00;;;;;;;10.85;7.60;;;6.20;99.90;;;;;;5031905;28;20843;-71
2021/04/03 01:02:26;;;;;;;10.40;7.35;;;;;;;;;;5030895;28;20371;-71
2021/04/03 01:04:52;;;;;;;11.10;7.22;;;;;;;;;;5031849;28;20482;-71
2021/04/03 01:07:17;;;;;;;10.95;7.80;;;5.70;99.90;;;;;;5030618;28;20776;-72
2021/04/03 01:09:44;;;;;;;12.30;8.33;;;6.10;99.90;;;;;;5031801;28;20384;-71
2021/04/03 01:12:32;;;;;;;11.23;7.40;;;;;;;;;;5031542;28;20418;-71
2021/04/03 01:15:02;;;;;;;11.98;7.45;;;5.80;99.90;;;;;;5031632;28;20471;-72
2021/04/03 01:18:00;;;;;;;11.10;7.70;;;5.60;99.90;;;;;;5030858;28;20524;-72
2021/04/03 01:20:45;;;;;;;9.65;7.63;;;5.80;99.90;;;;;;5029657;28;20387;-72
2021/04/03 01:23:48;;;;;;;13.18;7.72;;;6.40;99.90;;;;;;5031329;28;20441;-72
2021/04/03 01:26:41;;;;;;;12.43;7.90;;;5.50;99.90;;;;;;5031124;28;20760;-72
2021/04/03 01:29:26;;;;;;;11.70;7.20;;;5.50;99.90;;;;;;5031319;28;20541;-72
2021/04/03 01:31:53;;;;;;;11.77;7.30;;;5.40;99.90;;;;;;5031187;28;20424;-72
2021/04/03 01:34:22;;;;;;;12.15;8.40;;;5.50;99.90;;;;;;5030317;28;20380;-72
2021/04/03 01:36:49;;;;;;;10.35;7.30;;;;;;;;;;5031456;28;20875;-72
2021/04/03 01:39:21;;;;;;;11.00;7.88;;;5.00;99.90;;;;;;5031108;28;20376;-72
2021/04/03 01:41:48;;;;;;;13.75;9.63;;;4.70;99.90;;;;;;5030826;28;20445;-72
2021/04/03 01:44:19;;;;;;;13.57;7.40;;;;;;;;;;5030712;28;20414;-72
2021/04/03 01:46:45;;;;;;;11.97;7.93;;;;;;;;;;5030957;28;20427;-72
2021/04/03 01:49:14;;;;;;;11.40;7.97;;;;;;;;;;5031371;28;20804;-71
2021/04/03 01:51:44;;;;;;;7.32;6.35;;;4.70;99.90;;;;;;5029056;28;20391;-71
2021/04/03 01:54:10;;;;;;;10.87;6.57;;;;;;;;;;5030663;28;20398;-71
2021/04/03 01:56:37;;;;;;;8.48;4.93;;;;;;;;;;5030277;28;20390;-71
2021/04/03 01:59:06;;;;;;;5.40;4.65;;;4.50;99.90;;;;;;5030879;28;20783;-72
2021/04/03 02:01:33;;;;;;;6.13;4.13;;;;;;;;;;5030314;28;20493;-71
2021/04/03 02:03:59;;;;;;;5.28;4.30;;;4.70;99.90;;;;;;5030821;28;20390;-71
2021/04/03 02:06:25;;;;;;;5.10;4.00;;;4.30;99.90;;;;;;5028495;28;20852;-71
2021/04/03 02:08:50;;;;;;;5.85;4.40;;;4.20;99.90;;;;;;5030718;28;20461;-71
2021/04/03 02:11:17;;;;;;;5.50;4.30;;;;;;;;;;5029607;28;20418;-71
2021/04/03 02:13:44;;;;;;;4.90;3.67;;;;;;;;;;5030052;28;20392;-72
2021/04/03 02:16:11;;;;;;;5.07;3.80;;;;;;;;;;5030401;28;20398;-72
2021/04/03 02:18:38;;;;;;;6.25;4.65;;;;;;;;;;5029701;28;20460;-72
2021/04/03 02:21:05;;;;;;;5.82;4.80;;;;;;;;;;5030653;28;20443;-72
2021/04/03 02:23:32;;;;;;;10.30;7.20;;;;;;;;;;5030027;28;20450;-72
2021/04/03 02:25:58;;;;;;;7.70;5.20;;;;;;;;;;5030240;28;20801;-72
2021/04/03 02:28:25;;;;;;;13.73;6.40;;;;;;;;;;5029863;28;20379;-72
2021/04/03 02:30:52;;;;;;;7.72;6.45;;;4.40;99.90;;;;;;5030453;28;20863;-72
2021/04/03 02:33:18;;;;;;;8.52;6.00;;;;;;;;;;5030437;28;20493;-72
2021/04/03 02:35:44;;;;;;;9.10;5.90;;;;;;;;;;5028828;28;20422;-72
2021/04/03 02:38:10;;;;;;;8.20;5.70;;;;;;;;;;5030197;28;20778;-72
2021/04/03 02:40:36;;;;;;;8.65;5.78;;;3.90;99.90;;;;;;5029828;28;20462;-72
2021/04/03 02:43:02;;;;;;;5.80;4.73;;;;;;;;;;5030266;28;20639;-72
2021/04/03 02:45:29;;;;;;;7.47;5.40;;;;;;;;;;5029680;28;20848;-72
2021/04/03 02:48:00;;;;;;;6.80;5.10;;;;;;;;;;5030028;28;20804;-72
2021/04/03 02:50:31;;;;;;;7.70;5.75;;;4.10;99.90;;;;;;5029729;28;20389;-72
2021/04/03 02:52:57;;;;;;;8.98;6.50;;;;;;;;;;5030177;28;20859;-72
2021/04/03 02:55:24;;;;;;;11.65;5.65;;;;;;;;;;5028369;28;20727;-72
2021/04/03 02:57:52;;;;;;;7.95;6.03;;;;;;;;;;5029252;28;20767;-72
2021/04/03 03:00:19;;;;;;;9.63;5.40;;;4.10;99.90;;;;;;5030184;28;20371;-72
2021/04/03 03:02:46;;;;;;;6.28;5.10;;;;;;;;;;5029968;28;20398;-72
2021/04/03 03:05:13;;;;;;;7.15;5.40;;;4.40;99.90;;;;;;5030435;28;20387;-72
2021/04/03 03:07:43;;;;;;;7.50;5.97;;;4.20;99.90;;;;;;5029098;28;20434;-72
2021/04/03 03:10:12;;;;;;;7.93;5.85;;;4.10;99.90;;;;;;5012285;28;20395;-72
2021/04/03 03:12:38;;;;;;;10.68;5.90;;;;;;;;;;5011802;28;20391;-72
2021/04/03 03:15:04;;;;;;;8.45;5.47;;;;;;;;;;5014178;28;20861;-72
2021/04/03 03:17:31;;;;;;;5.63;4.80;;;;;;;;;;5009886;28;20408;-72
2021/04/03 03:20:00;;;;;;;9.00;5.18;;;;;;;;;;5010275;28;20388;-72
2021/04/03 03:22:26;;;;;;;5.63;4.70;;;;;;;;;;5009638;28;20639;-72
2021/04/03 03:24:52;;;;;;;8.38;5.32;;;4.00;99.90;;;;;;5010880;28;20381;-72
2021/04/03 03:27:19;;;;;;;7.90;5.37;;;4.10;99.90;;;;;;5013927;28;20439;-72
2021/04/03 03:29:46;;;;;;;5.68;3.85;;;;;;;;;;5013207;28;20386;-72
2021/04/03 03:32:12;;;;;;;7.35;5.20;;;;;;;;;;5013735;28;20850;-72
2021/04/03 03:34:39;;;;;;;7.45;4.97;;;;;;;;;;5013126;28;20439;-72
2021/04/03 03:37:05;;;;;;;7.15;5.45;;;;;;;;;;5013987;28;20385;-72
2021/04/03 03:39:31;;;;;;;8.27;5.50;;;;;;;;;;5013060;28;20448;-72
2021/04/03 03:42:00;;;;;;;9.23;5.68;;;4.20;99.90;;;;;;5013653;28;20377;-72
2021/04/03 03:44:26;;;;;;;7.50;5.22;;;;;;;;;;5012975;28;20415;-71
2021/04/03 03:46:52;;;;;;;7.82;5.60;;;;;;;;;;5013388;28;20483;-72
2021/04/03 03:49:17;;;;;;;7.37;4.90;;;4.20;99.90;;;;;;5013549;28;20373;-72
2021/04/03 03:51:43;;;;;;;5.85;5.10;;;4.30;99.90;;;;;;5012788;28;20396;-72
2021/04/03 03:54:09;;;;;;;6.45;4.93;;;;;;;;;;5013320;28;20420;-72
2021/04/03 03:56:36;;;;;;;8.13;5.28;;;;;;;;;;5012517;28;20472;-72
2021/04/03 03:59:02;;;;;;;7.20;5.32;;;;;;;;;;5013339;28;20377;-72
2021/04/03 04:01:28;;;;;;;5.82;4.47;;;;;;;;;;5012522;28;20404;-72
2021/04/03 04:03:54;;;;;;;4.68;4.15;;;4.00;99.90;;;;;;5013947;28;20369;-72
2021/04/03 04:06:19;;;;;;;6.57;5.10;;;4.40;99.90;;;;;;5021116;28;20430;-72
2021/04/03 04:08:45;;;;;;;6.88;4.75;;;4.30;99.90;;;;;;5033063;28;20466;-72
2021/04/03 04:11:11;;;;;;;7.18;4.78;;;;;;;;;;5033538;28;20441;-72
2021/04/03 04:13:37;;;;;;;7.07;5.32;;;4.30;99.90;;;;;;5028870;28;20384;-72
2021/04/03 04:16:06;;;;;;;6.85;5.10;;;4.70;99.90;;;;;;5013505;28;20408;-72
2021/04/03 04:18:32;;;;;;;6.80;5.07;;;4.20;99.90;;;;;;5012582;28;20399;-72
2021/04/03 04:20:58;;;;;;;6.30;4.68;;;;;;;;;;5013553;28;20445;-72
2021/04/03 04:23:25;;;;;;;6.10;4.82;;;;;;;;;;5013494;28;20744;-72
2021/04/03 04:25:51;;;;;;;6.60;5.00;;;;;;;;;;5012950;28;20412;-72
2021/04/03 04:28:17;;;;;;;7.22;5.18;;;;;;;;;;5013434;28;20393;-72
2021/04/03 04:30:42;;;;;;;10.73;5.93;;;4.40;99.90;;;;;;5012702;28;20439;-72
2021/04/03 04:33:09;;;;;;;7.80;5.47;;;4.50;99.90;;;;;;5013193;28;20450;-72
2021/04/03 04:35:35;;;;;;;8.88;5.50;;;4.50;99.90;;;;;;5012245;28;20392;-72
2021/04/03 04:38:01;;;;;;;7.43;5.30;;;;;;;;;;5013376;28;20838;-72
2021/04/03 04:40:27;;;;;;;8.07;5.53;;;;;;;;;;5013149;28;20392;-72
2021/04/03 04:42:54;;;;;;;7.45;5.30;;;;;;;;;;5013128;28;20785;-72
2021/04/03 04:45:20;;;;;;;9.45;5.38;;;;;;;;;;5012911;28;20729;-72
2021/04/03 04:47:46;;;;;;;8.40;5.23;;;3.80;99.90;;;;;;5012491;28;20488;-72
2021/04/03 04:50:12;;;;;;;6.30;5.57;;;4.40;99.90;;;;;;5013054;28;20975;-72
2021/04/03 04:52:39;;;;;;;7.00;5.20;;;4.20;99.90;;;;;;4994843;28;20459;-72
2021/04/03 04:55:05;;;;;;;8.03;5.40;;;4.30;99.90;;;;;;5012908;28;20487;-72
2021/04/03 04:57:30;;;;;;;10.25;5.55;;;4.30;99.90;;;;;;5011949;28;20424;-72
2021/04/03 04:59:56;;;;;;;7.53;5.40;;;;;;;;;;5012805;28;20439;-72
2021/04/03 05:02:23;;;;;;;8.07;5.15;;;;;;;;;;5012856;28;20482;-71
2021/04/03 05:04:49;;;;;;;7.70;5.80;;;;;;;;;;5011921;28;20407;-71
2021/04/03 05:07:16;;;;;;;6.43;5.30;;;;;;;;;;5027705;28;20515;-72
2021/04/03 05:09:41;;;;;;;6.60;5.43;;;4.40;99.90;;;;;;5031753;28;20379;-72
2021/04/03 05:12:07;;;;;;;8.00;5.60;;;4.40;99.90;;;;;;5032358;28;20426;-71
2021/04/03 05:14:33;;;;;;;7.60;5.10;;;4.30;99.90;;;;;;5020024;28;20464;-72
2021/04/03 05:16:59;;;;;;;9.55;6.40;;;;;;;;;;5012259;28;20483;-71
2021/04/03 05:19:25;;;;;;;7.72;5.40;;;;;;;;;;5012232;28;20375;-72
2021/04/03 05:21:51;;;;;;;8.85;5.78;;;;;;;;;;5011827;28;20409;-72
2021/04/03 05:24:17;;;;;;;11.73;6.80;;;4.40;99.90;;;;;;5012328;28;20385;-71
2021/04/03 05:26:43;;;;;;;7.45;5.80;;;;;;;;;;5011683;28;20420;-71
2021/04/03 05:29:09;;;;;;;9.52;6.05;;;;;;;;;;5012350;28;20381;-71
2021/04/03 05:31:35;;;;;;;7.28;5.75;;;;;;;;;;5011498;28;20380;-72
2021/04/03 05:34:01;;;;;;;7.47;5.85;;;4.30;99.90;;;;;;5012199;28;20373;-71
2021/04/03 05:36:27;;;;;;;8.93;6.43;;;4.30;99.90;;;;;;5012095;28;20380;-71
2021/04/03 05:38:52;;;;;;;9.13;5.50;;;4.30;99.90;;;;;;5011535;28;20385;-71
2021/04/03 05:41:18;;;;;;;8.93;6.10;;;;;;;;;;5011997;28;20388;-71
2021/04/03 05:43:46;;;;;;;8.27;5.80;;;4.30;99.90;;;;;;5011320;28;20384;-71
2021/04/03 05:46:14;;;;;;;7.25;5.65;;;4.30;99.90;;;;;;5011780;28;20761;-71
2021/04/03 05:48:40;;;;;;;7.65;6.00;;;4.60;99.90;;;;;;5010406;28;20404;-72
2021/04/03 05:51:06;;;;;;;6.40;5.15;;;4.40;99.90;;;;;;5011903;28;20400;-71
2021/04/03 05:53:32;;;;;;;10.43;5.70;;;;;;;;;;5010349;28;20765;-74
2021/04/03 05:55:59;;;;;;;7.65;6.28;;;4.70;99.90;;;;;;5011783;28;20460;-71
2021/04/03 05:58:25;;;;;;;7.18;5.72;;;;;;;;;;5011620;28;20734;-71
2021/04/03 06:00:55;;;;;;;10.27;5.47;;;;;;;;;;5011392;28;20377;-72
2021/04/03 06:03:21;;;;;;;11.30;6.40;;;4.30;99.90;;;;;;5011856;28;20369;-71
2021/04/03 06:05:52;;;;;;;6.50;4.90;;;4.80;99.90;;;;;;5013853;28;20934;-71
2021/04/03 06:08:20;;;;;;;7.70;5.22;;;;;;;;;;5030376;28;21522;-71
2021/04/03 06:11:10;;;;;;;7.70;5.90;;;4.70;99.90;;;;;;5030764;28;20384;-72
2021/04/03 06:13:36;;;;;;;6.93;5.47;;;;;;;;;;5029487;28;20808;-72
2021/04/03 06:16:24;;;;;;;9.30;6.13;;;5.00;99.90;;;;;;5030995;28;20879;-72
2021/04/03 06:19:05;;;;;;;8.00;5.97;;;5.20;99.90;;;;;;5030705;28;20754;-72
2021/04/03 06:21:31;;;;;;;7.70;4.88;;;5.10;99.90;;;;;;5031328;28;20386;-72
2021/04/03 06:23:57;;;;;;;8.13;5.43;;;5.00;99.90;;;;;;5012997;28;20484;-72
2021/04/03 06:26:23;;;;;;;8.17;5.10;;;5.40;99.90;;;;;;5030926;28;20498;-72
2021/04/03 06:28:49;;;;;;;8.38;5.72;;;;;;;;;;5030588;28;20428;-72
2021/04/03 06:31:16;;;;;;;5.80;4.90;;;;;;;;;;5031289;28;20770;-72
2021/04/03 06:33:42;;;;;;;8.30;4.32;;;;;;;;;;5030579;28;20436;-72
2021/04/03 06:36:11;;;;;;;6.97;4.90;;;5.70;99.90;;;;;;5030835;28;20863;-72
2021/04/03 06:38:38;;;;;;;6.45;4.68;;;5.70;99.90;;;;;;5030564;28;20387;-73
2021/04/03 06:41:16;;;;;;;4.40;3.17;;;;;;;;;;5031367;28;20732;-72
2021/04/03 06:43:42;;;;;;;6.68;4.30;;;6.20;99.90;;;;;;5030765;28;20386;-73
2021/04/03 06:46:24;;;;;;;4.32;3.53;;;5.80;99.90;;;;;;5030919;28;20747;-73
2021/04/03 06:48:53;;;;;;;4.40;3.10;;;;;;;;;;5030588;28;20407;-73
2021/04/03 06:51:22;;;;;;;3.92;3.00;;;5.90;99.90;;;;;;5030910;28;20739;-73
2021/04/03 06:53:58;;;;;;;4.20;3.40;;;6.40;99.90;;;;;;5030387;28;20384;-73
2021/04/03 06:56:26;;;;;;;4.57;3.47;;;6.20;99.90;;;;;;5030833;28;20878;-71
2021/04/03 06:58:58;;;;;;;4.03;3.20;;;6.30;99.90;;;;;;5031170;28;20383;-71
2021/04/03 07:01:26;;;;;;;5.40;3.75;;;;;;;;;;5034976;28;20440;-72
2021/04/03 07:03:55;;;;;;;4.57;3.08;;;6.50;99.90;;;;;;5034330;28;20735;-73
2021/04/03 07:06:23;;;;;;;2.95;2.53;;;7.10;99.90;;;;;;5034516;28;20839;-72
2021/04/03 07:08:50;;;;;;;3.00;2.67;;;6.70;99.90;;;;;;5034161;28;20493;-72
2021/04/03 07:11:17;;;;;;;3.13;2.72;;;6.70;99.90;;;;;;5034526;28;20387;-72
2021/04/03 07:13:45;;;;;;;3.60;2.60;;;7.20;99.90;;;;;;5029356;28;20393;-73
2021/04/03 07:16:11;;;;;;;5.20;2.60;;;7.20;99.90;;;;;;5014822;28;20443;-72
2021/04/03 07:18:41;;;;;;;2.92;2.50;;;;;;;;;;5013681;28;20392;-73
2021/04/03 07:21:07;;;;;;;2.80;2.50;;;;;;;;;;5014758;28;20467;-72
2021/04/03 07:23:38;;;;;;;2.60;2.08;;;7.50;99.90;;;;;;5014526;28;20401;-73
2021/04/03 07:26:04;;;;;;;3.00;2.08;;;7.70;99.90;;;;;;5014717;28;20417;-73
2021/04/03 07:28:41;;;;;;;2.10;1.90;;;7.90;99.90;;;;;;5013270;28;20393;-73
2021/04/03 07:31:10;;;;;;;3.17;1.83;;;7.70;99.90;;;;;;5014538;28;20385;-71
2021/04/03 07:33:49;;;;;;;3.80;1.80;;;7.70;99.90;;;;;;5014379;28;20738;-73
2021/04/03 07:36:40;;;;;;;2.67;2.20;;;8.40;99.90;;;;;;5014418;28;20404;-73
2021/04/03 07:39:36;;;;;;;1.92;1.60;;;7.80;99.40;;;;;;5014204;28;21109;-73
2021/04/03 07:42:04;;;;;;;4.93;1.80;;;8.20;99.90;;;;;;5013627;28;20385;-73
2021/04/03 07:44:34;;;;;;;4.00;2.00;;;8.20;99.90;;;;;;5013103;28;20384;-73
2021/04/03 07:47:20;;;;;;;2.40;1.40;;;8.20;99.90;;;;;;5013521;28;20483;-74
2021/04/03 07:49:46;;;;;;;2.35;2.08;;;8.20;99.30;;;;;;5013723;28;20393;-74
2021/04/03 07:52:12;;;;;;;2.37;1.83;;;8.60;98.60;;;;;;4996370;28;20467;-73
2021/04/03 07:54:39;;;;;;;1.70;1.50;;;7.60;96.90;;;;;;5014370;28;20423;-74
2021/04/03 07:57:07;;;;;;;2.92;1.60;;;;;;;;;;5014100;28;20484;-74
2021/04/03 07:59:48;;;;;;;4.43;1.88;;;8.00;97.20;;;;;;5013967;28;20373;-74
2021/04/03 08:02:16;;;;;;;2.90;1.80;;;8.30;99.90;;;;;;5013918;28;20397;-71
2021/04/03 08:04:42;;;;;;;3.50;2.33;;;;;;;;;;5013405;28;20403;-74
2021/04/03 08:07:08;;;;;;;2.40;1.45;;;;;;;;;;5027584;28;20415;-73
2021/04/03 08:09:35;;;;;;;2.40;1.33;;;8.50;96.70;;;;;;5033716;28;20709;-72
2021/04/03 08:12:02;;;;;;;1.77;1.45;;;9.00;99.70;;;;;;5031786;28;20471;-73
2021/04/03 08:14:31;;;;;;;2.00;1.65;;;8.70;95.80;;;;;;5022582;28;20397;-73
2021/04/03 08:16:59;;;;;;;3.00;1.73;;;8.50;95.90;;;;;;5013118;28;20435;-73
2021/04/03 08:19:33;;;;;;;2.60;1.60;;;8.50;98.60;;;;;;5013182;28;20396;-73
2021/04/03 08:21:59;;;;;;;2.20;1.50;;;8.60;99.90;;;;;;5012778;28;20389;-73
2021/04/03 08:24:25;;;;;;;2.40;1.85;;;8.80;97.70;;;;;;5013174;28;20385;-73
2021/04/03 08:26:51;;;;;;;2.88;1.80;;;;;;;;;;5012665;28;20413;-74
2021/04/03 08:29:20;;;;;;;2.78;1.77;;;;;;;;;;5013076;28;20392;-73
2021/04/03 08:31:48;;;;;;;2.22;1.75;;;8.40;96.60;;;;;;5012798;28;20396;-74
2021/04/03 08:34:14;;;;;;;1.88;1.77;;;;;;;;;;5013354;28;20381;-73
2021/04/03 08:36:40;;;;;;;4.40;1.77;;;;;;;;;;5013319;28;20718;-73
2021/04/03 08:39:12;;;;;;;3.72;1.60;;;9.40;99.50;;;;;;5013121;28;20407;-74
2021/04/03 08:41:42;;;;;;;2.50;1.55;;;9.60;99.50;;;;;;5013300;28;20466;-73
2021/04/03 08:44:21;;;;;;;3.80;1.50;;;9.60;97.10;;;;;;5013113;28;20416;-73
2021/04/03 08:46:48;;;;;;;1.50;1.40;;;;;;;;;;5012189;28;20435;-75
2021/04/03 08:49:22;;;;;;;3.08;1.70;;;9.30;99.40;;;;;;5012994;28;20378;-72
2021/04/03 08:51:48;;;;;;;3.22;1.63;;;10.00;97.40;;;;;;5012393;28;20428;-72
2021/04/03 08:54:14;;;;;;;1.63;1.52;;;;;;;;;;5012667;28;20480;-72
2021/04/03 08:56:40;;;;;;;2.47;1.80;;;;;;;;;;5011928;28;20877;-73
2021/04/03 08:59:08;;;;;;;4.28;1.60;;;9.00;98.10;;;;;;5012533;28;20438;-73
2021/04/03 09:01:39;;;;;;;2.70;1.50;;;8.80;93.90;;;;;;5012930;28;20396;-73
2021/04/03 09:04:08;;;;;;;2.38;1.33;;;;;;;;;;5011882;28;20393;-74
2021/04/03 09:06:53;;;;;;;1.50;1.30;;;9.10;93.90;;;;;;5020796;28;20427;-73
2021/04/03 09:09:21;;;;;;;2.45;1.40;;;9.30;97.30;;;;;;5032882;28;20390;-74
2021/04/03 09:11:57;;;;;;;2.70;1.50;;;9.70;94.40;;;;;;5031797;28;20387;-73
2021/04/03 09:14:28;;;;;;;3.58;1.60;;;9.40;92.60;;;;;;5031976;28;20871;-73
2021/04/03 09:16:54;;;;;;;3.72;2.08;;;9.60;92.60;;;;;;5031795;28;20725;-72
2021/04/03 09:19:31;;;;;;;2.63;1.83;;;9.50;92.10;;;;;;5032193;28;20392;-73
2021/04/03 09:21:58;;;;;;;3.25;1.55;;;;;;;;;;5031188;28;20474;-71
2021/04/03 09:24:36;;;;;;;2.70;1.60;;;;;;;;;;5031904;28;20371;-73
2021/04/03 09:27:16;;;;;;;3.55;1.70;;;;;;;;;;5031504;28;20442;-73
2021/04/03 09:29:43;;;;;;;1.83;1.10;;;9.50;90.70;;;;;;5032088;28;20391;-73
2021/04/03 09:32:11;;;;;;;1.90;1.40;;;10.20;91.00;;;;;;5031759;28;20394;-73
2021/04/03 09:34:37;;;;;;;2.70;1.58;;;9.50;91.40;;;;;;5031936;28;20462;-74
2021/04/03 09:37:19;;;;;;;2.42;1.70;;;9.20;91.00;;;;;;5031319;28;20390;-73
2021/04/03 09:39:53;;;;;;;2.10;1.70;;;9.50;89.60;;;;;;5031617;28;20783;-75
2021/04/03 09:42:22;;;;;;;2.85;1.67;;;10.40;91.20;;;;;;5031981;28;20459;-72
2021/04/03 09:44:49;;;;;;;1.90;1.30;;;10.90;91.30;;;;;;5031205;28;20380;-73
2021/04/03 09:47:16;;;;;;;2.35;1.42;;;11.10;88.10;;;;;;5031760;28;20767;-72
2021/04/03 09:49:42;;;;;;;3.42;1.60;;;11.00;86.90;;;;;;5030473;28;20422;-72
2021/04/03 09:52:09;;;;;;;1.98;1.60;;;11.80;88.40;;;;;;5031097;28;20472;-73
2021/04/03 09:54:36;;;;;;;1.70;1.60;;;;;;;;;;5031584;28;20384;-72
2021/04/03 09:57:02;;;;;;;2.58;1.67;;;11.00;91.60;;;;;;5031019;28;20735;-71
2021/04/03 09:59:28;;;;;;;2.58;1.65;;;11.30;91.70;;;;;;5031248;28;20883;-72
2021/04/03 10:01:58;;;;;;;4.35;1.88;;;10.60;84.60;;;;;;5030918;28;20382;-74
2021/04/03 10:04:25;;;;;;;2.40;1.65;;;;;;;;;;5031459;28;20384;-73
2021/04/03 10:06:51;;;;;;;1.70;1.60;;;11.00;86.10;;;;;;5029449;28;20419;-72
2021/04/03 10:09:17;;;;;;;2.20;1.30;;;10.80;84.30;;;;;;5031815;28;20383;-72
2021/04/03 10:11:43;;;;;;;2.00;1.80;;;;;;;;;;5031532;28;20383;-73
2021/04/03 10:14:09;;;;;;;1.90;1.50;;;11.50;87.10;;;;;;5030831;28;20857;-72
2021/04/03 10:16:34;;;;;;;2.03;1.60;;;11.40;84.20;;;;;;5013655;28;20398;-72
2021/04/03 10:19:00;;;;;;;1.83;1.50;;;;;;;;;;5030742;28;20870;-72
2021/04/03 10:21:26;;;;;;;4.30;2.30;;;;;;;;;;5031345;28;20755;-72
2021/04/03 10:23:53;;;;;;;1.88;1.75;;;11.10;82.60;;;;;;5030414;28;20732;-73
2021/04/03 10:26:19;;;;;;;1.90;1.50;;;11.30;81.10;;;;;;5030981;28;20781;-74
2021/04/03 10:28:46;;;;;;;2.30;1.63;;;12.20;85.60;;;;;;5031117;28;20448;-73
2021/04/03 10:31:12;;;;;;;2.50;1.30;;;11.80;90.10;;;;;;5030594;28;20371;-73
2021/04/03 10:33:38;;;;;;;2.13;1.60;;;12.00;82.20;;;;;;5031767;28;20379;-74
2021/04/03 10:36:06;;;;;;;1.80;1.60;;;11.80;91.40;;;;;;5034793;28;20391;-73
2021/04/03 10:38:32;;;;;;;2.78;1.80;;;11.80;90.60;;;;;;5035149;28;20386;-73
2021/04/03 10:40:58;;;;;;;1.57;1.47;;;;;;;;;;5034602;28;20393;-74
2021/04/03 10:43:24;;;;;;;1.88;1.38;;;;;;;;;;5035219;28;20379;-73
2021/04/03 10:45:50;;;;;;;2.40;1.30;;;12.30;82.40;;;;;;5034632;28;20543;-74
2021/04/03 10:48:16;;;;;;;4.30;1.60;;;12.50;90.80;;;;;;5034627;28;20950;-74
2021/04/03 10:50:42;;;;;;;2.73;1.70;;;;;;;;;;5034692;28;20387;-74
2021/04/03 10:53:08;;;;;;;4.60;1.80;;;;;;;;;;5034313;28;20379;-74
2021/04/03 10:55:34;;;;;;;2.10;1.90;;;;;;;;;;5034817;28;20882;-74
2021/04/03 10:58:00;;;;;;;2.38;1.70;;;12.70;88.10;;;;;;5034584;28;20379;-73
2021/04/03 11:00:26;;;;;;;3.00;1.90;;;12.20;82.30;;;;;;5034758;28;20387;-72
2021/04/03 11:02:52;;;;;;;2.00;1.60;;;;;;;;;;5034305;28;20780;-73
2021/04/03 11:05:19;;;;;;;3.17;1.73;;;;;;;;;;5034585;28;20379;-73
2021/04/03 11:07:44;;;;;;;4.03;1.73;;;12.80;89.90;;;;;;5034714;28;20447;-73
2021/04/03 11:10:12;;;;;;;3.00;1.73;;;13.40;77.70;;;;;;5034017;28;20851;-73
2021/04/03 11:12:38;;;;;;;2.58;1.70;;;11.30;83.80;;;;;;5034734;28;20391;-73
2021/04/03 11:15:05;;;;;;;2.50;1.97;;;12.80;79.20;;;;;;5017721;28;20938;-73
2021/04/03 11:17:30;;;;;;;1.83;1.50;;;11.70;77.40;;;;;;5014870;28;20463;-73
2021/04/03 11:19:56;;;;;;;2.40;1.60;;;;;;;;;;5014468;28;20554;-73
2021/04/03 11:22:24;;;;;;;1.92;1.60;;;12.60;78.80;;;;;;5014745;28;20383;-73
2021/04/03 11:24:50;;;;;;;1.88;1.60;;;;;;;;;;5014503;28;20392;-73
2021/04/03 11:27:16;;;;;;;2.90;1.80;;;12.00;85.20;;;;;;5012621;28;20414;-73
2021/04/03 11:29:41;;;;;;;2.57;1.90;;;12.90;90.10;;;;;;5014101;28;20385;-73
2021/04/03 11:32:07;;;;;;;4.03;1.70;;;13.60;76.90;;;;;;5013869;28;20377;-73
2021/04/03 11:34:33;;;;;;;1.70;1.60;;;;;;;;;;5014478;28;20949;-73
2021/04/03 11:36:59;;;;;;;2.90;1.60;;;15.10;70.60;;;;;;5013922;28;20480;-74
2021/04/03 11:39:25;;;;;;;2.22;1.73;;;15.60;72.00;;;;;;5014569;28;20395;-74
2021/04/03 11:41:50;;;;;;;1.53;1.40;;;15.60;64.00;;;;;;5014242;28;20435;-74
2021/04/03 11:44:16;;;;;;;3.45;1.77;;;16.70;62.60;;;;;;5013574;28;20396;-74
2021/04/03 11:46:42;;;;;;;1.98;1.52;;;;;;;;;;5012859;28;20932;-74
2021/04/03 11:49:08;;;;;;;1.70;1.50;;;17.00;71.20;;;;;;5013178;28;20873;-73
2021/04/03 11:51:34;;;;;;;2.00;1.80;;;;;;;;;;5014045;28;20377;-73
2021/04/03 11:53:59;;;;;;;1.70;1.60;;;15.10;62.80;;;;;;5013563;28;20703;-74
2021/04/03 11:56:25;;;;;;;2.10;1.73;;;15.80;72.30;;;;;;5014006;28;20393;-74
2021/04/03 11:58:51;;;;;;;1.80;1.60;;;;;;;;;;5013889;28;20948;-73
2021/04/03 12:01:17;;;;;;;2.25;1.77;;;17.10;70.90;;;;;;5013079;28;20452;-74
2021/04/03 12:03:43;;;;;;;3.10;1.40;;;;;;;;;;5012688;28;20532;-74
2021/04/03 12:06:08;;;;;;;2.20;1.52;;;17.00;55.30;;;;;;5018940;28;20418;-74
2021/04/03 12:08:34;;;;;;;2.10;1.60;;;16.90;68.70;;;;;;5033706;28;20383;-74
2021/04/03 12:10:59;;;;;;;2.37;1.90;;;18.00;57.20;;;;;;5031635;28;20398;-73
2021/04/03 12:13:26;;;;;;;2.78;2.00;;;17.70;55.30;;;;;;5033773;28;20398;-73
2021/04/03 12:15:52;;;;;;;2.20;1.77;;;;;;;;;;5033364;28;20380;-74
2021/04/03 12:18:17;;;;;;;3.20;1.40;;;16.40;55.90;;;;;;5033004;28;20391;-74
2021/04/03 12:20:43;;;;;;;1.40;1.30;;;17.50;58.10;;;;;;5033397;28;20382;-73
2021/04/03 12:23:09;;;;;;;1.87;1.77;;;18.00;62.10;;;;;;5032709;28;20380;-73
2021/04/03 12:25:34;;;;;;;2.17;1.52;;;18.00;57.70;;;;;;5033258;28;20450;-74
2021/04/03 12:28:00;;;;;;;2.00;1.60;;;;;;;;;;5032598;28;20419;-74
2021/04/03 12:30:26;;;;;;;1.60;1.40;;;16.10;56.60;;;;;;5032834;28;20372;-73
2021/04/03 12:32:52;;;;;;;2.30;1.60;;;;;;;;;;5033262;28;20378;-73
2021/04/03 12:35:18;;;;;;;2.10;1.70;;;;;;;;;;5032486;28;20375;-74
2021/04/03 12:37:44;;;;;;;2.87;1.80;;;15.30;67.70;;;;;;5033152;28;20449;-72
2021/04/03 12:40:11;;;;;;;3.83;2.10;;;;;;;;;;5032203;28;20787;-74
2021/04/03 12:42:37;;;;;;;1.70;1.50;;;16.20;65.10;;;;;;5032988;28;20390;-73
2021/04/03 12:45:04;;;;;;;2.03;1.63;;;;;;;;;;5032145;28;20383;-73
2021/04/03 12:47:30;;;;;;;1.73;1.50;;;;;;;;;;5032528;28;20450;-73
2021/04/03 12:49:56;;;;;;;1.75;1.65;;;17.10;59.00;;;;;;5032667;28;20731;-74
2021/04/03 12:52:22;;;;;;;2.15;1.92;;;;;;;;;;5032809;28;20383;-73
2021/04/03 12:54:48;;;;;;;3.25;2.00;;;;;;;;;;5032890;28;20457;-73
2021/04/03 12:57:14;;;;;;;1.50;1.40;;;17.10;64.60;;;;;;5031720;28;20383;-73
2021/04/03 12:59:40;;;;;;;3.88;1.80;;;16.70;57.30;;;;;;5031386;28;20898;-73
2021/04/03 13:02:06;;;;;;;2.50;1.70;;;17.00;56.50;;;;;;5031908;28;20394;-73
2021/04/03 13:04:32;;;;;;;3.00;1.80;;;17.60;56.50;;;;;;5032513;28;20410;-73
2021/04/03 13:06:58;;;;;;;3.33;1.80;;;17.30;61.60;;;;;;5031659;28;20799;-75
2021/04/03 13:09:24;;;;;;;1.73;1.63;;;;;;;;;;5032686;28;20395;-74
2021/04/03 13:11:50;;;;;;;2.30;1.40;;;16.20;60.60;;;;;;5032401;28;20452;-74
2021/04/03 13:14:15;;;;;;;3.10;1.60;;;16.50;59.30;;;;;;5022388;28;20424;-74
2021/04/03 13:16:41;;;;;;;3.50;1.60;;;15.90;65.60;;;;;;5012377;28;20907;-74
2021/04/03 13:19:07;;;;;;;1.60;1.50;;;17.40;60.70;;;;;;5012277;28;20532;-73
2021/04/03 13:21:33;;;;;;;2.00;1.35;;;;;;;;;;5012462;28;20782;-73
2021/04/03 13:23:59;;;;;;;2.33;1.38;;;16.40;59.80;;;;;;5011802;28;20373;-76
2021/04/03 13:26:24;;;;;;;2.40;1.70;;;16.50;62.80;;;;;;5011991;28;20422;-73
2021/04/03 13:28:51;;;;;;;2.00;1.55;;;;;;;;;;5012711;28;20397;-73
2021/04/03 13:31:17;;;;;;;2.90;1.40;;;17.30;56.10;;;;;;5011686;28;20373;-73
2021/04/03 13:33:43;;;;;;;2.25;1.60;;;16.70;63.20;;;;;;5012385;28;20373;-74
2021/04/03 13:36:09;;;;;;;1.60;1.40;;;16.90;55.20;;;;;;5011393;28;20756;-74